Alva, Mississippi
Current Conditions -  °F | °C
As of 3:55 PM on Monday 22 Dec 2014 (Local Time) from KGNF Reporting Station
Overcast Overcast  
Wind Chill: 55°   Ceiling: 700
Heat Index: 55°   Visibility: 10mi
Dew Point: 54°   Wind: 7mph
Humidity: 94%   Direction: 130°SE
Pressure: 29.66"   Gusts: NA
Location:  33.6702°N, 89.6861°W
Report Text: KGNF 222155Z AUTO 13006KT 10SM OVC007 13/12 A2966 RMK AO2
Loading
Personal Weather Stations






























Interactive Weather Map New forecast layout! Learn more

10-Day Weather Forecast

Advertisements
Track Severe Weather on mobile